Time;durP1;ratioP1;P1;durP2;ratioP2;P2;SDS_P1;SDS_P2;PMS_P1;PMS_P2;Temp;Humidity;BMP_temperature;BMP_pressure;BME280_temperature;BME280_humidity;BME280_pressure;Samples;Min_cycle;Max_cycle;Signal;HPM_P1;HPM_P2
2022/11/16 00:01:40;0.00;0.00;0.62;0.00;0.00;0.62;2.17;1.30;;;25.70;27.00;;;;;;2251343;61;20402;-66
2022/11/16 00:04:25;0.00;0.00;0.62;0.00;0.00;0.62;2.63;1.30;;;25.70;27.00;;;;;;2251752;61;20394;-66
2022/11/16 00:07:10;0.00;0.00;0.62;0.00;0.00;0.62;1.43;0.90;;;25.70;27.00;;;;;;2251909;61;20366;-65
2022/11/16 00:09:55;0.00;0.00;0.62;0.00;0.00;0.62;2.00;1.20;;;25.70;26.90;;;;;;2250944;61;20414;-65
2022/11/16 00:12:39;0.00;0.00;0.62;0.00;0.00;0.62;1.67;1.00;;;25.80;27.50;;;;;;2252079;61;20782;-66
2022/11/16 00:15:26;0.00;0.00;0.62;0.00;0.00;0.62;2.60;1.30;;;25.70;26.90;;;;;;2252328;61;20362;-66
2022/11/16 00:18:11;0.00;0.00;0.62;0.00;0.00;0.62;1.80;1.13;;;25.70;26.90;;;;;;2251234;61;20796;-65
2022/11/16 00:20:56;0.00;0.00;0.62;0.00;0.00;0.62;3.70;1.17;;;25.70;26.90;;;;;;2252421;61;20391;-65
2022/11/16 00:23:40;0.00;0.00;0.62;0.00;0.00;0.62;1.93;1.20;;;25.70;26.90;;;;;;2251283;61;20949;-66
2022/11/16 00:26:25;0.00;0.00;0.62;0.00;0.00;0.62;1.77;1.20;;;25.80;26.90;;;;;;2251750;61;20487;-65
2022/11/16 00:29:14;0.00;0.00;0.62;0.00;0.00;0.62;1.60;1.10;;;25.80;26.90;;;;;;2251858;61;20383;-65
2022/11/16 00:32:00;0.00;0.00;0.62;0.00;0.00;0.62;1.80;1.07;;;25.80;26.90;;;;;;2250440;61;20455;-64
2022/11/16 00:34:45;0.00;0.00;0.62;0.00;0.00;0.62;1.97;1.10;;;25.80;27.00;;;;;;2251939;61;20433;-67
2022/11/16 00:37:30;0.00;0.00;0.62;0.00;0.00;0.62;1.77;1.00;;;25.80;26.90;;;;;;2252043;61;20454;-65
2022/11/16 00:40:15;0.00;0.00;0.62;0.00;0.00;0.62;3.03;0.97;;;25.80;26.90;;;;;;2250330;61;20359;-66
2022/11/16 00:43:00;0.00;0.00;0.62;0.00;0.00;0.62;1.57;1.03;;;25.70;26.90;;;;;;2252339;61;20462;-66
2022/11/16 00:45:45;0.00;0.00;0.62;0.00;0.00;0.62;1.83;1.30;;;25.80;26.90;;;;;;2250946;61;20391;-66
2022/11/16 00:48:31;0.00;0.00;0.62;0.00;0.00;0.62;1.73;1.13;;;25.70;26.90;;;;;;2250836;61;20418;-65
2022/11/16 00:51:15;0.00;0.00;0.62;0.00;0.00;0.62;2.30;1.30;;;25.80;27.00;;;;;;2251918;61;20425;-65
2022/11/16 00:54:01;0.00;0.00;0.62;0.00;0.00;0.62;1.60;1.00;;;25.80;27.00;;;;;;2250878;61;20378;-65
2022/11/16 00:56:47;0.00;0.00;0.62;0.00;0.00;0.62;1.97;1.00;;;25.70;26.90;;;;;;2251208;61;20358;-65
2022/11/16 00:59:32;0.00;0.00;0.62;0.00;0.00;0.62;1.60;1.20;;;25.80;27.00;;;;;;2251527;61;20386;-66
2022/11/16 01:02:17;0.00;0.00;0.62;0.00;0.00;0.62;1.80;1.20;;;25.80;27.00;;;;;;2250022;61;20402;-65
2022/11/16 01:05:04;0.00;0.00;0.62;0.00;0.00;0.62;2.33;0.90;;;25.80;27.00;;;;;;2251868;61;20753;-65
2022/11/16 01:07:50;0.00;0.00;0.62;0.00;0.00;0.62;1.63;1.00;;;25.70;27.00;;;;;;2250859;61;20445;-66
2022/11/16 01:10:37;0.00;0.00;0.62;0.00;0.00;0.62;1.50;1.00;;;25.80;27.00;;;;;;2251205;61;20390;-65
2022/11/16 01:13:22;0.00;0.00;0.62;0.00;0.00;0.62;1.57;0.90;;;25.80;27.00;;;;;;2252071;61;20753;-65
2022/11/16 01:16:07;0.00;0.00;0.62;0.00;0.00;0.62;1.60;1.00;;;25.80;27.00;;;;;;2251079;61;20942;-66
2022/11/16 01:18:54;0.00;0.00;0.62;0.00;0.00;0.62;1.50;0.90;;;25.80;27.00;;;;;;2480871;53;20399;-65
2022/11/16 01:21:40;0.00;0.00;0.62;0.00;0.00;0.62;1.30;0.80;;;25.80;27.00;;;;;;2248299;61;20763;-66
2022/11/16 01:24:26;0.00;0.00;0.62;0.00;0.00;0.62;1.90;1.30;;;25.80;27.00;;;;;;2246453;61;20930;-65
2022/11/16 01:27:10;0.00;0.00;0.62;0.00;0.00;0.62;1.70;1.10;;;25.80;27.00;;;;;;2250328;61;20376;-66
2022/11/16 01:29:58;0.00;0.00;0.62;0.00;0.00;0.62;1.70;1.20;;;25.80;27.00;;;;;;2246650;61;20526;-64
2022/11/16 01:32:42;0.00;0.00;0.62;0.00;0.00;0.62;2.00;1.00;;;25.80;27.00;;;;;;2247248;61;20360;-66
2022/11/16 01:35:27;0.00;0.00;0.62;0.00;0.00;0.62;1.60;1.17;;;25.80;27.00;;;;;;2247500;61;20888;-64
2022/11/16 01:38:13;0.00;0.00;0.62;0.00;0.00;0.62;2.43;1.40;;;25.80;27.00;;;;;;2246856;61;20614;-64
2022/11/16 01:40:58;0.00;0.00;0.62;0.00;0.00;0.62;1.87;1.40;;;25.80;27.00;;;;;;2247302;61;20776;-66
2022/11/16 01:43:53;0.00;0.00;0.62;0.00;0.00;0.62;2.60;1.50;;;25.80;26.90;;;;;;2247660;61;20415;-64
2022/11/16 01:46:40;0.00;0.00;0.62;0.00;0.00;0.62;1.90;1.43;;;25.80;26.90;;;;;;2245876;61;20348;-66
2022/11/16 01:49:33;0.00;0.00;0.62;0.00;0.00;0.62;2.40;1.77;;;25.80;26.90;;;;;;2244721;61;20415;-65
2022/11/16 01:52:24;0.00;0.00;0.62;0.00;0.00;0.62;2.00;1.73;;;25.80;26.80;;;;;;2246874;61;20352;-65
2022/11/16 01:55:11;0.00;0.00;0.62;0.00;0.00;0.62;2.30;1.83;;;25.80;26.80;;;;;;2247199;61;20364;-65
2022/11/16 01:58:18;0.00;0.00;0.62;0.00;0.00;0.62;2.40;1.73;;;25.80;26.70;;;;;;2247164;61;20387;-66
2022/11/16 02:01:06;0.00;0.00;0.62;0.00;0.00;0.62;3.17;2.53;;;25.80;26.70;;;;;;2246273;61;20448;-65
2022/11/16 02:03:59;0.00;0.00;0.62;0.00;0.00;0.62;2.73;2.07;;;25.80;26.70;;;;;;2247581;61;20495;-66
2022/11/16 02:07:00;0.00;0.00;0.62;0.00;0.00;0.62;2.87;1.83;;;25.80;26.70;;;;;;2251101;61;20366;-66
2022/11/16 02:10:09;0.00;0.00;0.62;0.00;0.00;0.62;2.33;1.80;;;25.80;26.60;;;;;;2251398;61;20373;-64
2022/11/16 02:13:30;0.00;0.00;0.62;0.00;0.00;0.62;3.00;2.20;;;25.80;26.60;;;;;;2252252;61;20363;-64
2022/11/16 02:16:31;0.00;0.00;0.62;0.00;0.00;0.62;4.73;2.43;;;25.70;26.60;;;;;;2250656;61;20395;-66
2022/11/16 02:19:53;0.00;0.00;0.62;0.00;0.00;0.62;2.70;2.07;;;25.70;26.50;;;;;;2248156;61;20390;-64
2022/11/16 02:23:00;0.00;0.00;0.62;0.00;0.00;0.62;3.07;2.60;;;25.70;26.50;;;;;;2247507;61;20399;-64
2022/11/16 02:25:58;0.00;0.00;0.62;0.00;0.00;0.62;3.90;2.40;;;25.70;26.60;;;;;;2248034;61;20375;-65
2022/11/16 02:29:00;0.00;0.00;0.62;0.00;0.00;0.62;3.10;2.70;;;25.70;26.50;;;;;;2248372;61;20412;-64
2022/11/16 02:31:51;0.00;0.00;0.62;0.00;0.00;0.62;3.47;2.57;;;25.70;26.50;;;;;;2247246;61;20946;-64
2022/11/16 02:34:43;0.00;0.00;0.62;0.00;0.00;0.62;2.23;2.03;;;25.70;26.50;;;;;;2248069;61;20460;-65
2022/11/16 02:37:33;0.00;0.00;0.62;0.00;0.00;0.62;4.17;2.70;;;25.70;26.40;;;;;;2247286;61;20383;-63
2022/11/16 02:40:21;0.00;0.00;0.62;0.00;0.00;0.62;2.93;2.27;;;25.70;26.40;;;;;;2245012;61;20363;-64
2022/11/16 02:43:08;0.00;0.00;0.62;0.00;0.00;0.62;2.53;2.23;;;25.70;26.50;;;;;;2248161;61;20883;-66
2022/11/16 02:46:01;0.00;0.00;0.62;0.00;0.00;0.62;3.20;2.60;;;25.70;26.40;;;;;;2246594;61;20408;-65
2022/11/16 02:48:49;0.00;0.00;0.62;0.00;0.00;0.62;3.90;2.80;;;25.60;26.40;;;;;;2250646;61;20376;-66
2022/11/16 02:51:37;0.00;0.00;0.62;0.00;0.00;0.62;4.57;3.07;;;25.60;26.40;;;;;;2247037;61;20495;-66
2022/11/16 02:54:23;0.00;0.00;0.62;0.00;0.00;0.62;4.60;3.40;;;25.60;26.40;;;;;;2250286;61;20371;-66
2022/11/16 02:57:39;0.00;0.00;0.62;0.00;0.00;0.62;3.47;2.90;;;25.60;26.40;;;;;;2250674;61;20372;-66
2022/11/16 03:00:31;0.00;0.00;0.62;0.00;0.00;0.62;4.67;2.90;;;25.60;26.40;;;;;;2246835;61;20515;-67
2022/11/16 03:03:27;0.00;0.00;0.62;0.00;0.00;0.62;3.40;2.93;;;25.60;26.40;;;;;;2248362;61;20399;-65
2022/11/16 03:06:17;0.00;0.00;0.62;0.00;0.00;0.62;3.10;2.77;;;25.60;26.40;;;;;;2250228;61;20397;-64
2022/11/16 03:09:08;0.00;0.00;0.62;0.00;0.00;0.62;4.43;2.70;;;25.60;26.90;;;;;;2251231;61;20406;-65
2022/11/16 03:11:58;0.00;0.00;0.62;0.00;0.00;0.62;3.97;2.90;;;25.50;26.40;;;;;;2251939;61;20370;-65
2022/11/16 03:14:48;0.00;0.00;0.62;0.00;0.00;0.62;4.03;3.20;;;25.50;26.40;;;;;;2250853;61;20355;-66
2022/11/16 03:17:40;0.00;0.00;0.62;0.00;0.00;0.62;3.27;2.97;;;25.50;26.40;;;;;;2251948;61;20374;-66
2022/11/16 03:20:31;0.00;0.00;0.62;0.00;0.00;0.62;3.00;2.70;;;25.50;26.40;;;;;;2251914;61;20398;-65
2022/11/16 03:23:16;0.00;0.00;0.62;0.00;0.00;0.62;4.00;3.03;;;25.50;26.40;;;;;;2251140;61;20451;-66
2022/11/16 03:26:05;0.00;0.00;0.62;0.00;0.00;0.62;3.50;3.10;;;25.50;26.40;;;;;;2251891;61;20358;-65
2022/11/16 03:29:00;0.00;0.00;0.62;0.00;0.00;0.62;4.10;3.70;;;25.50;26.40;;;;;;2248195;61;20523;-65
2022/11/16 03:31:54;0.00;0.00;0.62;0.00;0.00;0.62;3.50;3.10;;;25.40;26.40;;;;;;2250938;61;20383;-66
2022/11/16 03:34:43;0.00;0.00;0.62;0.00;0.00;0.62;4.17;3.20;;;25.50;26.40;;;;;;2251901;61;20370;-65
2022/11/16 03:37:30;0.00;0.00;0.62;0.00;0.00;0.62;3.87;3.00;;;25.40;26.40;;;;;;2250827;61;20399;-67
2022/11/16 03:40:18;0.00;0.00;0.62;0.00;0.00;0.62;3.80;3.10;;;25.40;26.40;;;;;;2252004;61;20514;-65
2022/11/16 03:43:05;0.00;0.00;0.62;0.00;0.00;0.62;2.90;2.50;;;25.40;26.40;;;;;;2251013;61;20890;-64
2022/11/16 03:45:50;0.00;0.00;0.62;0.00;0.00;0.62;4.00;3.20;;;25.40;26.40;;;;;;2251259;61;20437;-66
2022/11/16 03:48:38;0.00;0.00;0.62;0.00;0.00;0.62;4.93;4.00;;;25.40;26.40;;;;;;2251607;61;20414;-66
2022/11/16 03:51:29;0.00;0.00;0.62;0.00;0.00;0.62;5.70;3.43;;;25.40;26.50;;;;;;2250850;61;20406;-65
2022/11/16 03:54:15;0.00;0.00;0.62;0.00;0.00;0.62;3.50;2.87;;;25.40;26.40;;;;;;2252007;61;20379;-67
2022/11/16 03:57:00;0.00;0.00;0.62;0.00;0.00;0.62;4.03;3.23;;;25.40;27.00;;;;;;2251722;61;20367;-66
2022/11/16 03:59:45;0.00;0.00;0.62;0.00;0.00;0.62;4.90;3.60;;;25.40;26.50;;;;;;2250351;61;20378;-67
2022/11/16 04:02:30;0.00;0.00;0.62;0.00;0.00;0.62;4.20;3.80;;;25.40;26.50;;;;;;2249128;61;20394;-66
2022/11/16 04:30:00;0.00;0.00;0.62;0.00;0.00;0.62;4.10;3.67;;;25.20;26.50;;;;;;2250722;61;20378;-66
2022/11/16 04:38:55;0.00;0.00;0.62;0.00;0.00;0.62;4.23;3.83;;;25.20;26.60;;;;;;2251373;61;20382;-67
2022/11/16 04:48:02;0.00;0.00;0.62;0.00;0.00;0.62;4.50;4.03;;;25.10;26.50;;;;;;2251618;61;20387;-67
2022/11/16 04:50:50;0.00;0.00;0.62;0.00;0.00;0.62;4.70;3.73;;;25.10;26.50;;;;;;2250370;61;20844;-65
2022/11/16 04:53:36;0.00;0.00;0.62;0.00;0.00;0.62;4.60;3.83;;;25.10;26.50;;;;;;2251487;61;20359;-65
2022/11/16 04:56:30;0.00;0.00;0.62;0.00;0.00;0.62;3.80;3.50;;;25.10;26.50;;;;;;2251563;61;20836;-66
2022/11/16 04:59:16;0.00;0.00;0.62;0.00;0.00;0.62;5.00;4.07;;;25.10;26.50;;;;;;2249971;61;20437;-64
2022/11/16 05:02:08;0.00;0.00;0.62;0.00;0.00;0.62;5.33;4.70;;;25.10;26.50;;;;;;2252236;61;20410;-67
2022/11/16 05:04:56;0.00;0.00;0.62;0.00;0.00;0.62;5.20;4.17;;;25.10;26.60;;;;;;2250615;61;20367;-64
2022/11/16 05:07:42;0.00;0.00;0.62;0.00;0.00;0.62;5.80;4.30;;;25.10;26.50;;;;;;2251012;61;20784;-66
2022/11/16 05:10:33;0.00;0.00;0.62;0.00;0.00;0.62;4.90;4.40;;;25.10;26.50;;;;;;2251449;61;20382;-66
2022/11/16 05:13:18;0.00;0.00;0.62;0.00;0.00;0.62;6.00;5.40;;;25.10;27.10;;;;;;2250778;61;20434;-66
2022/11/16 05:16:03;0.00;0.00;0.62;0.00;0.00;0.62;5.33;4.20;;;25.10;26.60;;;;;;2251429;61;20367;-66
2022/11/16 05:20:59;0.00;0.00;0.62;0.00;0.00;0.62;5.07;4.57;;;25.00;26.50;;;;;;2481103;53;20387;-64
2022/11/16 05:21:54;0.00;0.00;0.62;0.00;0.00;0.62;5.90;4.87;;;25.00;26.50;;;;;;2246815;61;20426;-67
2022/11/16 05:24:39;0.00;0.00;0.62;0.00;0.00;0.62;4.80;4.33;;;25.00;26.50;;;;;;2247679;61;20399;-67
2022/11/16 05:27:26;0.00;0.00;0.62;0.00;0.00;0.62;5.70;4.23;;;25.00;26.60;;;;;;2246987;61;20356;-67
2022/11/16 05:30:12;0.00;0.00;0.62;0.00;0.00;0.62;4.93;4.37;;;25.00;26.60;;;;;;2246874;61;20427;-64
2022/11/16 05:32:57;0.00;0.00;0.62;0.00;0.00;0.62;4.50;4.10;;;25.00;26.60;;;;;;2244517;61;20403;-66
2022/11/16 05:35:44;0.00;0.00;0.62;0.00;0.00;0.62;5.07;3.90;;;25.00;26.60;;;;;;2246266;61;20456;-66
2022/11/16 05:38:29;0.00;0.00;0.62;0.00;0.00;0.62;5.93;5.03;;;25.00;26.60;;;;;;2249888;61;20966;-65
2022/11/16 05:41:16;0.00;0.00;0.62;0.00;0.00;0.62;5.63;4.77;;;25.00;26.60;;;;;;2249903;61;20415;-64
2022/11/16 05:44:01;0.00;0.00;0.62;0.00;0.00;0.62;6.27;4.53;;;24.90;26.50;;;;;;2247287;61;20364;-67
2022/11/16 05:46:46;0.00;0.00;0.62;0.00;0.00;0.62;4.87;4.37;;;24.90;26.50;;;;;;2247897;61;20407;-65
2022/11/16 05:49:31;0.00;0.00;0.62;0.00;0.00;0.62;5.20;4.70;;;24.90;26.50;;;;;;2246957;61;20431;-65
2022/11/16 05:52:17;0.00;0.00;0.62;0.00;0.00;0.62;6.10;5.50;;;24.90;26.50;;;;;;2249603;61;20368;-65
2022/11/16 05:55:04;0.00;0.00;0.62;0.00;0.00;0.62;5.10;4.60;;;24.90;26.50;;;;;;2250249;61;20364;-66
2022/11/16 05:57:53;0.00;0.00;0.62;0.00;0.00;0.62;6.23;5.23;;;24.90;26.50;;;;;;2246132;61;20419;-66
2022/11/16 06:00:38;0.00;0.00;0.62;0.00;0.00;0.62;6.57;5.60;;;24.90;26.50;;;;;;2247726;61;20411;-63
2022/11/16 06:03:28;0.00;0.00;0.62;0.00;0.00;0.62;5.77;4.70;;;24.80;27.00;;;;;;2247512;61;20424;-66
2022/11/16 06:06:13;0.00;0.00;0.62;0.00;0.00;0.62;5.53;4.87;;;24.80;26.50;;;;;;2249718;61;20367;-67
2022/11/16 06:09:00;0.00;0.00;0.62;0.00;0.00;0.62;5.43;4.90;;;24.80;26.50;;;;;;2251309;61;20948;-64
2022/11/16 06:11:45;0.00;0.00;0.62;0.00;0.00;0.62;6.60;5.77;;;24.80;26.60;;;;;;2250587;61;20374;-66
2022/11/16 06:14:30;0.00;0.00;0.62;0.00;0.00;0.62;8.63;6.17;;;24.80;26.60;;;;;;2250558;61;20414;-65
2022/11/16 06:17:16;0.00;0.00;0.62;0.00;0.00;0.62;6.40;5.63;;;24.70;26.40;;;;;;2251184;61;20371;-66
2022/11/16 06:20:02;0.00;0.00;0.62;0.00;0.00;0.62;5.57;4.77;;;24.70;27.00;;;;;;2250183;61;20402;-67
2022/11/16 06:22:47;0.00;0.00;0.62;0.00;0.00;0.62;5.43;4.93;;;24.70;26.50;;;;;;2251418;61;20902;-63
2022/11/16 06:25:36;0.00;0.00;0.62;0.00;0.00;0.62;6.47;5.13;;;24.70;26.50;;;;;;2251610;61;20724;-66
2022/11/16 06:28:22;0.00;0.00;0.62;0.00;0.00;0.62;6.00;5.40;;;24.70;26.50;;;;;;2250375;61;20471;-65
2022/11/16 06:31:07;0.00;0.00;0.62;0.00;0.00;0.62;6.97;6.20;;;24.70;26.50;;;;;;2251073;61;20481;-64
2022/11/16 06:33:57;0.00;0.00;0.62;0.00;0.00;0.62;6.10;5.10;;;24.70;26.60;;;;;;2250600;61;20402;-63
2022/11/16 06:36:44;0.00;0.00;0.62;0.00;0.00;0.62;7.03;5.80;;;24.60;26.50;;;;;;2250565;61;21149;-64
2022/11/16 06:39:29;0.00;0.00;0.62;0.00;0.00;0.62;5.90;5.27;;;24.60;26.50;;;;;;2251833;61;20382;-64
2022/11/16 06:42:15;0.00;0.00;0.62;0.00;0.00;0.62;5.93;5.30;;;24.60;26.50;;;;;;2250041;61;20381;-63
2022/11/16 06:45:00;0.00;0.00;0.62;0.00;0.00;0.62;6.77;6.07;;;24.60;26.50;;;;;;2251337;61;20362;-63
2022/11/16 06:47:49;0.00;0.00;0.62;0.00;0.00;0.62;6.37;5.77;;;24.60;27.10;;;;;;2251231;61;20922;-63
2022/11/16 06:50:34;0.00;0.00;0.62;0.00;0.00;0.62;5.80;5.23;;;24.60;26.60;;;;;;2250869;61;20490;-65
2022/11/16 06:53:20;0.00;0.00;0.62;0.00;0.00;0.62;6.30;5.20;;;24.60;26.60;;;;;;2252796;61;20439;-66
2022/11/16 06:56:09;0.00;0.00;0.62;0.00;0.00;0.62;5.70;5.10;;;24.60;26.60;;;;;;2250999;61;20410;-64
2022/11/16 06:59:01;0.00;0.00;0.62;0.00;0.00;0.62;6.27;5.50;;;24.60;27.20;;;;;;2251273;61;20497;-65
2022/11/16 07:01:47;0.00;0.00;0.62;0.00;0.00;0.62;6.53;5.43;;;24.60;26.60;;;;;;2252197;61;20362;-63
2022/11/16 07:04:32;0.00;0.00;0.62;0.00;0.00;0.62;6.07;5.43;;;24.60;26.60;;;;;;2250738;61;20461;-65
2022/11/16 07:07:18;0.00;0.00;0.62;0.00;0.00;0.62;6.30;5.60;;;24.60;26.70;;;;;;2252103;61;20363;-65
2022/11/16 07:10:04;0.00;0.00;0.62;0.00;0.00;0.62;6.33;5.73;;;24.60;26.70;;;;;;2251661;61;20366;-64
2022/11/16 07:12:50;0.00;0.00;0.62;0.00;0.00;0.62;7.43;5.57;;;24.60;26.70;;;;;;2251298;61;20367;-63
2022/11/16 07:15:38;0.00;0.00;0.62;0.00;0.00;0.62;6.13;5.53;;;24.60;26.70;;;;;;2252090;61;20371;-63
2022/11/16 07:18:23;0.00;0.00;0.62;0.00;0.00;0.62;6.67;5.77;;;24.60;26.70;;;;;;2250911;61;20430;-65
2022/11/16 07:21:11;0.00;0.00;0.62;0.00;0.00;0.62;7.47;6.00;;;24.60;26.70;;;;;;2251411;61;20359;-63
2022/11/16 07:23:56;0.00;0.00;0.62;0.00;0.00;0.62;7.90;6.00;;;24.60;26.70;;;;;;2251987;61;20961;-66
2022/11/16 07:26:41;0.00;0.00;0.62;0.00;0.00;0.62;6.73;5.67;;;24.60;26.70;;;;;;2250420;61;20402;-62
2022/11/16 07:29:31;0.00;0.00;0.62;0.00;0.00;0.62;6.40;5.70;;;24.60;26.70;;;;;;2252011;61;20434;-64
2022/11/16 07:32:46;0.00;0.00;0.62;0.00;0.00;0.62;7.83;6.20;;;24.60;26.70;;;;;;2248410;61;20371;-63
2022/11/16 07:35:38;0.00;0.00;0.62;0.00;0.00;0.62;7.00;6.13;;;24.50;26.60;;;;;;2251144;61;20355;-65
2022/11/16 07:38:23;0.00;0.00;0.62;0.00;0.00;0.62;6.13;5.53;;;24.50;26.60;;;;;;2252173;61;20379;-64
2022/11/16 07:41:10;0.00;0.00;0.62;0.00;0.00;0.62;7.10;6.40;;;24.50;26.60;;;;;;2250776;61;20359;-63
2022/11/16 07:44:00;0.00;0.00;0.62;0.00;0.00;0.62;6.40;5.70;;;24.50;26.70;;;;;;2251714;61;20940;-62
2022/11/16 07:46:49;0.00;0.00;0.62;0.00;0.00;0.62;6.77;6.07;;;24.50;26.70;;;;;;2251855;61;20415;-62
2022/11/16 07:49:36;0.00;0.00;0.62;0.00;0.00;0.62;5.93;5.33;;;24.50;26.60;;;;;;2251079;61;20919;-64
2022/11/16 07:52:28;0.00;0.00;0.62;0.00;0.00;0.62;6.57;5.87;;;24.50;26.70;;;;;;2251816;61;20367;-64
2022/11/16 07:55:18;0.00;0.00;0.62;0.00;0.00;0.62;6.93;6.23;;;24.50;26.70;;;;;;2251525;61;20645;-66
2022/11/16 07:58:05;0.00;0.00;0.62;0.00;0.00;0.62;6.50;5.90;;;24.50;26.60;;;;;;2251000;61;20827;-65
2022/11/16 08:00:50;0.00;0.00;0.62;0.00;0.00;0.62;8.23;6.30;;;24.50;26.60;;;;;;2251815;61;20406;-67
2022/11/16 08:03:35;0.00;0.00;0.62;0.00;0.00;0.62;6.73;6.10;;;24.50;26.60;;;;;;2250965;61;20383;-64
2022/11/16 08:06:27;0.00;0.00;0.62;0.00;0.00;0.62;6.87;6.17;;;24.50;26.60;;;;;;2251844;61;20810;-66
2022/11/16 08:09:13;0.00;0.00;0.62;0.00;0.00;0.62;6.70;6.00;;;24.50;26.60;;;;;;2251342;61;20430;-65
2022/11/16 08:11:59;0.00;0.00;0.62;0.00;0.00;0.62;7.33;6.53;;;24.50;26.60;;;;;;2250951;61;20458;-65
2022/11/16 08:14:44;0.00;0.00;0.62;0.00;0.00;0.62;7.60;6.80;;;24.50;26.60;;;;;;2251797;61;20343;-65
2022/11/16 08:17:31;0.00;0.00;0.62;0.00;0.00;0.62;6.90;6.20;;;24.50;26.60;;;;;;2251300;61;20366;-64
2022/11/16 08:20:17;0.00;0.00;0.62;0.00;0.00;0.62;7.93;6.17;;;24.50;26.60;;;;;;2251197;61;20451;-65
2022/11/16 08:23:03;0.00;0.00;0.62;0.00;0.00;0.62;8.80;6.60;;;24.40;26.50;;;;;;2251808;61;20374;-63
2022/11/16 08:25:51;0.00;0.00;0.62;0.00;0.00;0.62;7.27;6.47;;;24.50;26.60;;;;;;2250685;61;20405;-63
2022/11/16 08:28:37;0.00;0.00;0.62;0.00;0.00;0.62;7.80;7.00;;;24.50;26.60;;;;;;2251944;61;20386;-65
2022/11/16 08:31:25;0.00;0.00;0.62;0.00;0.00;0.62;8.40;7.27;;;24.40;26.50;;;;;;2251829;61;20913;-64
2022/11/16 08:34:14;0.00;0.00;0.62;0.00;0.00;0.62;7.73;6.90;;;24.40;26.50;;;;;;2251445;61;20826;-64
2022/11/16 08:37:03;0.00;0.00;0.62;0.00;0.00;0.62;7.90;7.10;;;24.40;26.50;;;;;;2251537;61;20946;-65
2022/11/16 08:40:03;0.00;0.00;0.62;0.00;0.00;0.62;7.83;7.03;;;24.30;26.50;;;;;;2250924;61;20366;-66
2022/11/16 08:42:51;0.00;0.00;0.62;0.00;0.00;0.62;6.93;6.23;;;24.30;26.50;;;;;;2251402;61;20366;-62
2022/11/16 08:45:37;0.00;0.00;0.62;0.00;0.00;0.62;7.00;6.30;;;24.30;26.50;;;;;;2249122;61;20371;-63
2022/11/16 08:48:22;0.00;0.00;0.62;0.00;0.00;0.62;6.90;6.20;;;24.30;26.50;;;;;;2249953;61;20914;-64
2022/11/16 08:51:09;0.00;0.00;0.62;0.00;0.00;0.62;8.63;7.10;;;24.30;26.50;;;;;;2251514;61;20491;-65
2022/11/16 08:53:55;0.00;0.00;0.62;0.00;0.00;0.62;7.43;6.37;;;24.40;26.60;;;;;;2251359;61;20633;-65
2022/11/16 08:56:42;0.00;0.00;0.62;0.00;0.00;0.62;6.83;6.10;;;24.40;26.60;;;;;;2250695;61;20961;-63
2022/11/16 08:59:28;0.00;0.00;0.62;0.00;0.00;0.62;7.80;7.00;;;24.40;26.60;;;;;;2251429;61;20402;-65
2022/11/16 09:02:24;0.00;0.00;0.62;0.00;0.00;0.62;8.57;7.40;;;24.40;26.60;;;;;;2248253;61;20934;-65
2022/11/16 09:05:10;0.00;0.00;0.62;0.00;0.00;0.62;10.03;8.53;;;24.40;26.50;;;;;;2251659;61;20367;-66
2022/11/16 09:07:55;0.00;0.00;0.62;0.00;0.00;0.62;10.87;8.90;;;24.40;26.60;;;;;;2252211;61;20417;-64
2022/11/16 09:10:40;0.00;0.00;0.62;0.00;0.00;0.62;8.30;7.47;;;24.40;26.60;;;;;;2250306;61;20382;-65
2022/11/16 09:13:27;0.00;0.00;0.62;0.00;0.00;0.62;10.00;9.00;;;24.40;26.60;;;;;;2251910;61;20433;-66
2022/11/16 09:16:15;0.00;0.00;0.62;0.00;0.00;0.62;10.33;8.20;;;24.40;26.60;;;;;;2251263;61;20924;-65
2022/11/16 09:19:00;0.00;0.00;0.62;0.00;0.00;0.62;10.53;9.47;;;24.40;26.60;;;;;;2247332;61;20383;-65
2022/11/16 09:21:45;0.00;0.00;0.62;0.00;0.00;0.62;10.80;9.67;;;24.40;26.60;;;;;;2248204;61;20454;-65
2022/11/16 09:24:30;0.00;0.00;0.62;0.00;0.00;0.62;10.70;8.63;;;24.40;26.50;;;;;;2247251;61;20444;-64
2022/11/16 09:27:15;0.00;0.00;0.62;0.00;0.00;0.62;9.60;8.60;;;24.40;26.50;;;;;;2247488;61;20364;-66
2022/11/16 09:30:02;0.00;0.00;0.62;0.00;0.00;0.62;11.13;9.30;;;24.40;26.50;;;;;;2247985;61;20371;-66
2022/11/16 09:32:47;0.00;0.00;0.62;0.00;0.00;0.62;11.53;10.37;;;24.30;26.40;;;;;;2246447;61;20891;-64
2022/11/16 09:35:33;0.00;0.00;0.62;0.00;0.00;0.62;12.30;10.93;;;24.30;26.40;;;;;;2247543;61;20813;-67
2022/11/16 09:38:18;0.00;0.00;0.62;0.00;0.00;0.62;11.17;10.00;;;24.30;26.90;;;;;;2246771;61;20387;-66
2022/11/16 09:41:17;0.00;0.00;0.62;0.00;0.00;0.62;11.20;10.10;;;24.30;26.90;;;;;;2246915;61;20363;-63
2022/11/16 09:44:10;0.00;0.00;0.62;0.00;0.00;0.62;11.70;10.50;;;24.30;26.40;;;;;;2248048;61;20524;-65
2022/11/16 09:46:58;0.00;0.00;0.62;0.00;0.00;0.62;10.77;9.60;;;24.20;26.40;;;;;;2246801;61;20546;-63
2022/11/16 09:49:48;0.00;0.00;0.62;0.00;0.00;0.62;11.63;10.43;;;24.20;26.30;;;;;;2247556;61;20919;-64
2022/11/16 09:52:37;0.00;0.00;0.62;0.00;0.00;0.62;10.93;9.90;;;24.20;26.40;;;;;;2248126;61;20802;-67
2022/11/16 09:55:29;0.00;0.00;0.62;0.00;0.00;0.62;12.50;10.47;;;24.20;26.30;;;;;;2247042;61;20372;-65
2022/11/16 09:58:21;0.00;0.00;0.62;0.00;0.00;0.62;10.23;8.77;;;24.20;26.30;;;;;;2247818;61;20775;-66
2022/11/16 10:01:22;0.00;0.00;0.62;0.00;0.00;0.62;11.30;9.80;;;24.20;26.30;;;;;;2247127;61;20451;-65
2022/11/16 10:04:16;0.00;0.00;0.62;0.00;0.00;0.62;9.53;8.53;;;24.20;26.30;;;;;;2247642;61;20359;-65
2022/11/16 10:07:06;0.00;0.00;0.62;0.00;0.00;0.62;10.70;9.70;;;24.10;26.30;;;;;;2247842;61;20388;-65
2022/11/16 10:09:52;0.00;0.00;0.62;0.00;0.00;0.62;11.80;9.77;;;24.10;26.30;;;;;;2246799;61;20360;-70
2022/11/16 10:12:45;0.00;0.00;0.62;0.00;0.00;0.62;13.33;11.33;;;24.10;26.30;;;;;;2248035;61;20360;-65
2022/11/16 10:15:43;0.00;0.00;0.62;0.00;0.00;0.62;10.83;9.80;;;24.10;26.30;;;;;;2247206;61;20368;-67
2022/11/16 10:18:47;0.00;0.00;0.62;0.00;0.00;0.62;13.50;10.93;;;24.10;26.30;;;;;;2250916;61;20394;-66
2022/11/16 10:21:49;0.00;0.00;0.62;0.00;0.00;0.62;13.77;12.30;;;24.10;26.30;;;;;;2252005;61;20363;-66
2022/11/16 10:24:54;0.00;0.00;0.62;0.00;0.00;0.62;13.20;11.77;;;24.10;26.30;;;;;;2250585;61;20366;-65
2022/11/16 10:28:25;0.00;0.00;0.62;0.00;0.00;0.62;16.23;12.57;;;24.10;26.30;;;;;;2252161;61;20378;-65
2022/11/16 10:31:21;0.00;0.00;0.62;0.00;0.00;0.62;17.03;12.43;;;24.10;26.30;;;;;;2251462;61;20441;-65
2022/11/16 10:34:07;0.00;0.00;0.62;0.00;0.00;0.62;14.90;13.30;;;24.10;26.30;;;;;;2252380;61;20394;-65
2022/11/16 10:37:02;0.00;0.00;0.62;0.00;0.00;0.62;15.30;13.70;;;24.10;26.30;;;;;;2252344;61;20775;-66
2022/11/16 10:39:52;0.00;0.00;0.62;0.00;0.00;0.62;15.57;13.93;;;24.10;26.40;;;;;;2251902;61;20451;-66
2022/11/16 10:42:40;0.00;0.00;0.62;0.00;0.00;0.62;18.17;13.50;;;24.10;26.40;;;;;;2252845;61;20431;-65
2022/11/16 10:45:31;0.00;0.00;0.62;0.00;0.00;0.62;18.20;15.00;;;24.10;26.40;;;;;;2251952;61;20394;-66
2022/11/16 10:48:30;0.00;0.00;0.62;0.00;0.00;0.62;15.60;13.97;;;24.10;26.50;;;;;;2251710;61;20422;-67
2022/11/16 10:51:15;0.00;0.00;0.62;0.00;0.00;0.62;16.23;13.30;;;24.10;26.50;;;;;;2252346;61;20386;-67
2022/11/16 10:54:03;0.00;0.00;0.62;0.00;0.00;0.62;14.33;12.90;;;24.10;26.50;;;;;;2251642;61;20870;-67
2022/11/16 10:56:55;0.00;0.00;0.62;0.00;0.00;0.62;14.73;13.17;;;24.10;26.50;;;;;;2252462;61;20390;-67
2022/11/16 10:59:43;0.00;0.00;0.62;0.00;0.00;0.62;17.07;14.20;;;24.10;26.50;;;;;;2251436;61;20843;-66
2022/11/16 11:02:35;0.00;0.00;0.62;0.00;0.00;0.62;15.20;13.47;;;24.20;26.60;;;;;;2251868;61;20363;-65
2022/11/16 11:05:21;0.00;0.00;0.62;0.00;0.00;0.62;14.57;13.07;;;24.20;26.60;;;;;;2252529;61;20390;-65
2022/11/16 11:08:10;0.00;0.00;0.62;0.00;0.00;0.62;12.47;11.17;;;24.20;26.60;;;;;;2251094;61;20387;-65
2022/11/16 11:12:36;0.00;0.00;0.62;0.00;0.00;0.62;14.47;12.83;;;24.20;26.60;;;;;;2251385;61;20473;-66
2022/11/16 11:14:11;0.00;0.00;0.62;0.00;0.00;0.62;12.90;11.63;;;24.20;26.60;;;;;;2252192;61;20791;-67
2022/11/16 11:17:10;0.00;0.00;0.62;0.00;0.00;0.62;12.87;11.50;;;24.20;26.60;;;;;;2251482;61;20421;-66
2022/11/16 11:19:59;0.00;0.00;0.62;0.00;0.00;0.62;13.67;11.97;;;24.20;26.60;;;;;;2252500;61;20359;-68
2022/11/16 11:22:52;0.00;0.00;0.62;0.00;0.00;0.62;13.50;11.27;;;24.20;26.60;;;;;;2251764;61;20379;-65
2022/11/16 11:25:40;0.00;0.00;0.62;0.00;0.00;0.62;11.90;10.63;;;24.20;26.60;;;;;;2252269;61;20510;-66
2022/11/16 11:28:30;0.00;0.00;0.62;0.00;0.00;0.62;13.40;12.00;;;24.20;26.60;;;;;;2252454;61;20482;-66
2022/11/16 11:31:24;0.00;0.00;0.62;0.00;0.00;0.62;12.80;10.80;;;24.20;26.60;;;;;;2251053;61;20802;-66
2022/11/16 11:34:19;0.00;0.00;0.62;0.00;0.00;0.62;12.20;11.00;;;24.30;26.70;;;;;;2252389;61;20911;-66
2022/11/16 11:37:13;0.00;0.00;0.62;0.00;0.00;0.62;14.33;10.83;;;24.30;26.70;;;;;;2251245;61;20535;-65
2022/11/16 11:40:21;0.00;0.00;0.62;0.00;0.00;0.62;10.97;9.87;;;24.20;26.60;;;;;;2252016;61;20813;-65
2022/11/16 11:43:21;0.00;0.00;0.62;0.00;0.00;0.62;11.27;10.17;;;24.30;26.70;;;;;;2252411;61;20925;-65